• Join FlightAware (Why Join?)
  • Login
  • US Flag 
06:56PM EDT


 

Airport Tracker/Info


-or-


 

Live Flight TrackerFlight Track Log ✈ SWA1319 ✈ 19-Apr-2013 ✈ KMCI - KPDX

Flight Track Log - Related Links

Times and Time Zones

All times are in EDT time to prevent confusion due to time zone crossing. See the SWA1319 flight status page for this flight to view local times or setup timezone preferences in your user account.

Time Position Orientation Groundspeed Altitude Reporting Facility
EDT Latitude Longitude Course Direction KTS MPH feet Rate Location/Type
06:11PM 39.3500 -94.7333 322° Northwest 180 207 2,600  Level Kansas City TRACON
06:12PM 39.3394 -94.8139 260° West 215 247 5,300 2,760 Climbing Kansas City Center
06:13PM 39.3386 -94.9108 269° West 242 278 8,800 2,640 Climbing Kansas City Center
06:14PM 39.3367 -94.9986 268° West 254 292 10,900 1,860 Climbing Kansas City Center
06:15PM 39.3342 -95.1247 269° West 317 365 12,700 2,160 Climbing Kansas City Center
06:16PM 39.3306 -95.2492 268° West 337 388 15,500 2,460 Climbing Kansas City Center
06:17PM 39.3269 -95.3831 268° West 347 399 17,800 1,860 Climbing Kansas City Center
06:18PM 39.3239 -95.4947 268° West 350 403 19,400 1,560 Climbing Kansas City Center
06:19PM 39.3200 -95.6408 268° West 365 420 21,200 1,620 Climbing Kansas City Center
06:20PM 39.3156 -95.7703 267° West 379 436 22,700 1,500 Climbing Kansas City Center
06:22PM 39.3125 -95.9228 269° West 382 440 24,400 1,680 Climbing Kansas City Center
06:23PM 39.3103 -96.0519 269° West 376 433 26,300 1,680 Climbing Kansas City Center
06:24PM 39.3069 -96.1819 268° West 369 425 27,800 1,620 Climbing Kansas City Center
06:25PM 39.3042 -96.3403 269° West 368 423 29,700 1,440 Climbing Kansas City Center
06:26PM 39.3128 -96.4647 275° West 355 409 30,900 1,020 Climbing Kansas City Center
06:27PM 39.3589 -96.5728 299° West 355 409 31,900 960 Climbing Kansas City Center
06:28PM 39.4064 -96.6969 296° West 349 402 33,000 900 Climbing Kansas City Center
06:29PM 39.4461 -96.8028 296° West 345 397 33,800 480 Climbing Kansas City Center
06:30PM 39.4942 -96.9281 296° West 346 398 34,000 60 Climbing Kansas City Center
06:31PM 39.5392 -97.0436 297° West 350 403 34,000  Level Kansas City Center
06:32PM 39.5819 -97.1553 296° West 348 400 34,000  Level Kansas City Center
06:33PM 39.6244 -97.2606 298° West 350 403 34,000  Level Kansas City Center
06:34PM 39.6658 -97.3728 296° West 346 398 34,000  Level Kansas City Center
06:35PM 39.7192 -97.5072 297° West 348 400 34,000  Level Kansas City Center
06:36PM 39.7614 -97.6214 296° West 349 402 34,000  Level Kansas City Center
06:37PM 39.8036 -97.7383 295° West 351 404 34,000  Level Kansas City Center
06:38PM 39.8300 -97.8072 297° West 353 406 34,000  Level Denver Center
06:38PM 39.8553 -97.8753 296° West 352 405 34,000  Level Minneapolis Center
06:39PM 39.8975 -97.9900 296° West 353 406 34,000  Level Minneapolis Center
06:40PM 39.9492 -98.1261 296° West 349 402 34,000  Level Minneapolis Center
06:41PM 39.9914 -98.2397 296° West 348 400 34,000  Level Minneapolis Center
06:42PM 40.0333 -98.3539 296° West 347 399 34,000  Level Minneapolis Center
06:43PM 40.0747 -98.4686 295° West 348 400 34,000  Level Minneapolis Center
06:44PM 40.1183 -98.5847 296° West 352 405 34,000  Level Minneapolis Center
06:46PM 40.1603 -98.7014 295° West 353 406 34,000  Level Minneapolis Center
06:47PM 40.2031 -98.8178 296° West 354 407 34,000  Level Minneapolis Center
06:47PM 40.2278 -98.8886 295° West 353 406 34,000  Level Denver Center
06:48PM 40.2689 -99.0033 295° West 349 402 34,000  Level Denver Center
06:49PM 40.3106 -99.1197 295° West 350 403 34,000  Level Denver Center
06:50PM 40.3525 -99.2347 296° West 349 402 34,000  Level Denver Center
06:51PM 40.3781 -99.3053 295° West 351 404 34,000  Level Minneapolis Center
06:51PM 40.3936 -99.3508 294° West 349 402 34,000  Level Denver Center
06:52PM 40.4344 -99.4664 295° West 348 400 34,000  Level Denver Center
06:53PM 40.4756 -99.5825 295° West 348 400 34,000  Level Denver Center
06:54PM 40.5253 -99.7247 295° West 353 406 34,000  Level Denver Center
06:55PM 40.5664 -99.8408 295° West 351 404 34,000  Level Denver Center
06:56PM 40.6050 -99.9522 295° West 355 409 34,000  Level Denver Center
06:57PM 40.6503 -100.0831 295° West 353 406 34,000  Level Denver Center
06:58PM 40.6889 -100.1956 294° West 353 406 34,000  Level Denver Center
06:59PM 40.7344 -100.3269 295° West 354 407 34,000  Level Denver Center
07:00PM 40.7736 -100.4397 295° West 353 406 34,000  Level Denver Center
07:01PM 40.8192 -100.5728 294° West 357 411 34,000  Level Denver Center
07:03PM 40.8606 -100.6939 294° West 356 410 34,000  Level Denver Center
07:04PM 40.8986 -100.8122 293° West 352 405 34,000  Level Denver Center
07:05PM 40.9378 -100.9250 295° West 355 409 34,000  Level Denver Center
07:06PM 40.9828 -101.0583 294° West 357 411 34,000  Level Denver Center
07:07PM 41.0211 -101.1731 294° West 357 411 34,000  Level Denver Center
07:08PM 41.0656 -101.3058 294° West 355 409 34,000  Level Denver Center
07:09PM 41.1036 -101.4211 294° West 357 411 34,000  Level Denver Center
07:10PM 41.1475 -101.5550 294° West 356 410 34,000  Level Denver Center
07:11PM 41.1858 -101.6697 294° West 356 410 34,000  Level Denver Center
07:12PM 41.2303 -101.8047 294° West 357 411 34,000  Level Denver Center
07:13PM 41.2667 -101.9211 293° West 357 411 34,000  Level Denver Center
07:14PM 41.3111 -102.0572 294° West 359 413 34,000  Level Denver Center
07:15PM 41.3478 -102.1739 293° West 359 413 34,000  Level Denver Center
07:16PM 41.3908 -102.3094 293° West 357 411 34,000  Level Denver Center
07:17PM 41.4292 -102.4247 294° West 356 410 34,000  Level Denver Center
07:18PM 41.4706 -102.5614 292° West 355 409 34,000  Level Denver Center
07:19PM 41.5092 -102.6803 293° West 355 409 34,000 240 Level Denver Center
07:20PM 41.5453 -102.7964 293° West 355 409 34,600 600 Climbing Denver Center
07:21PM 41.5875 -102.9314 293° West 353 406 35,300 660 Climbing Denver Center
07:22PM 41.6247 -103.0492 293° West 359 413 36,000 300 Climbing Denver Center
07:23PM 41.6667 -103.1886 292° West 361 415 36,000  Level Denver Center
07:24PM 41.7042 -103.3058 293° West 359 413 36,000  Level Denver Center
07:25PM 41.7461 -103.4458 292° West 361 415 36,000  Level Denver Center
07:26PM 41.7836 -103.5639 293° West 360 414 36,000  Level Denver Center
07:27PM 41.8247 -103.7042 292° West 361 415 36,000  Level Denver Center
07:28PM 41.8614 -103.8250 292° West 363 418 36,000 -300 Level Denver Center
07:29PM 41.8981 -103.9456 292° West 365 420 35,400 -900 Descending Denver Center
07:30PM 41.9386 -104.0828 292° West 355 409 34,200 -720 Descending Denver Center
07:31PM 41.9739 -104.2008 292° West 354 407 34,000 -120 Descending Denver Center
07:32PM 42.0150 -104.3386 292° West 356 410 34,000  Level Denver Center
07:34PM 42.0506 -104.4575 292° West 357 411 34,000  Level Denver Center
07:35PM 42.0919 -104.5972 292° West 358 412 34,000  Level Denver Center
07:36PM 42.1264 -104.7156 291° West 354 407 34,000  Level Denver Center
07:37PM 42.1672 -104.8556 292° West 358 412 34,000  Level Denver Center
07:38PM 42.2008 -104.9742 291° West 353 406 34,000  Level Denver Center
07:39PM 42.2353 -105.0917 292° West 350 403 34,000  Level Denver Center
07:40PM 42.2742 -105.2311 291° West 354 407 34,000  Level Denver Center
07:41PM 42.3097 -105.3528 292° West 361 415 34,000  Level Denver Center
07:42PM 42.3500 -105.4961 291° West 367 422 34,000  Level Denver Center
07:43PM 42.3850 -105.6189 291° West 365 420 34,000  Level Denver Center
07:44PM 42.4256 -105.7642 291° West 367 422 34,000  Level Denver Center
07:45PM 42.4608 -105.8875 291° West 367 422 34,000  Level Denver Center
07:46PM 42.5011 -106.0333 291° West 370 426 34,000  Level Denver Center
07:47PM 42.5347 -106.1581 290° West 368 423 34,000  Level Denver Center
07:48PM 42.5686 -106.2828 290° West 369 425 34,000  Level Denver Center
07:49PM 42.6097 -106.4275 291° West 368 423 34,000  Level Denver Center
07:50PM 42.6428 -106.5522 290° West 366 421 34,000  Level Denver Center
07:51PM 42.6822 -106.6978 290° West 365 420 34,000  Level Denver Center
07:52PM 42.7158 -106.8219 290° West 367 422 34,000  Level Denver Center
07:53PM 42.7558 -106.9692 290° West 370 426 34,000  Level Denver Center
07:54PM 42.7886 -107.0961 289° West 372 428 34,000  Level Denver Center
07:55PM 42.8069 -107.1678 289° West 374 430 34,000  Level Salt Lake Center
07:56PM 42.8406 -107.2947 290° West 375 432 34,000  Level Salt Lake Center
07:57PM 42.8797 -107.4444 290° West 376 433 34,000  Level Salt Lake Center
07:57PM 42.8989 -107.5158 290° West 380 437 34,000  Level Denver Center
07:58PM 42.9361 -107.6592 290° West 378 435 34,000  Level Denver Center
07:59PM 42.9489 -107.7111 289° West 381 438 34,000  Level Salt Lake Center
08:00PM 42.9878 -107.8628 289° West 378 435 34,000  Level Salt Lake Center
08:01PM 43.0217 -107.9928 290° West 379 436 34,000  Level Salt Lake Center
08:02PM 43.0544 -108.1217 289° West 375 432 34,000  Level Salt Lake Center
08:03PM 43.0922 -108.2728 289° West 375 432 34,000  Level Salt Lake Center
08:04PM 43.1253 -108.4033 289° West 378 435 34,000  Level Salt Lake Center
08:05PM 43.1631 -108.5536 289° West 375 432 34,000 120 Level Salt Lake Center
08:06PM 43.1944 -108.6822 289° West 373 429 34,300 720 Climbing Salt Lake Center
08:07PM 43.2317 -108.8331 289° West 373 429 35,500 780 Climbing Salt Lake Center
08:08PM 43.2631 -108.9628 288° West 373 429 36,000 240 Climbing Salt Lake Center
08:09PM 43.2944 -109.0892 289° West 369 425 36,000  Level Salt Lake Center
08:10PM 43.3300 -109.2339 289° West 362 417 36,000  Level Salt Lake Center
08:11PM 43.3606 -109.3619 288° West 367 422 36,000  Level Salt Lake Center
08:12PM 43.3961 -109.5117 288° West 370 426 36,000  Level Salt Lake Center
08:13PM 43.4269 -109.6414 288° West 371 427 36,000  Level Salt Lake Center
08:14PM 43.4642 -109.7950 289° West 377 434 36,000  Level Salt Lake Center
08:15PM 43.4978 -109.9308 289° West 376 433 36,000  Level Salt Lake Center
08:16PM 43.5289 -110.0681 287° West 381 438 36,000  Level Salt Lake Center
08:17PM 43.5600 -110.2006 288° West 381 438 36,000  Level Salt Lake Center
08:18PM 43.5950 -110.3547 287° West 377 434 36,000  Level Salt Lake Center
08:19PM 43.6256 -110.4872 288° West 377 434 36,000  Level Salt Lake Center
08:20PM 43.6594 -110.6400 287° West 373 429 36,000  Level Salt Lake Center
08:21PM 43.6908 -110.7731 288° West 380 437 36,000  Level Salt Lake Center
08:22PM 43.7258 -110.9272 287° West 376 433 36,000  Level Salt Lake Center
08:23PM 43.7550 -111.0611 287° West 380 437 36,000  Level Salt Lake Center
08:24PM 43.7847 -111.1928 287° West 376 433 36,000  Level Salt Lake Center
08:25PM 43.8189 -111.3467 287° West 374 430 36,000  Level Salt Lake Center
08:27PM 43.8481 -111.4792 287° West 375 432 36,000  Level Salt Lake Center
08:28PM 43.8806 -111.6333 286° West 374 430 36,000  Level Salt Lake Center
08:29PM 43.9089 -111.7661 287° West 373 429 36,000  Level Salt Lake Center
08:30PM 43.9433 -111.9208 287° West 375 432 36,000  Level Salt Lake Center
08:31PM 43.9708 -112.0542 286° West 374 430 36,000  Level Salt Lake Center
08:32PM 43.9986 -112.1853 286° West 370 426 36,000  Level Salt Lake Center
08:33PM 44.0314 -112.3408 286° West 374 430 36,000  Level Salt Lake Center
08:34PM 44.0592 -112.4764 286° West 379 436 36,000  Level Salt Lake Center
08:35PM 44.0931 -112.6353 287° West 381 438 36,000  Level Salt Lake Center
08:36PM 44.1192 -112.7697 285° West 379 436 36,000  Level Salt Lake Center
08:37PM 44.1475 -112.9061 286° West 381 438 36,000  Level Salt Lake Center
08:38PM 44.1797 -113.0650 286° West 381 438 36,000  Level Salt Lake Center
08:39PM 44.2092 -113.2028 287° West 384 442 36,000  Level Salt Lake Center
08:40PM 44.2406 -113.3642 285° West 386 444 36,000  Level Salt Lake Center
08:41PM 44.2672 -113.5022 285° West 386 444 36,000  Level Salt Lake Center
08:42PM 44.3008 -113.6647 286° West 388 447 36,000  Level Salt Lake Center
08:43PM 44.3286 -113.8028 286° West 388 447 36,000  Level Salt Lake Center
08:44PM 44.3581 -113.9628 284° West 386 444 36,000  Level Salt Lake Center
08:45PM 44.3842 -114.1006 285° West 384 442 36,000  Level Salt Lake Center
08:46PM 44.4125 -114.2383 286° West 385 443 36,000  Level Salt Lake Center
08:47PM 44.4433 -114.3997 285° West 385 443 36,000  Level Salt Lake Center
08:48PM 44.4700 -114.5392 285° West 387 445 36,000  Level Salt Lake Center
08:49PM 44.5000 -114.7003 285° West 385 443 36,000  Level Salt Lake Center
08:50PM 44.5244 -114.8378 284° West 383 441 36,000  Level Salt Lake Center
08:51PM 44.5531 -115.0028 284° West 389 448 36,000  Level Salt Lake Center
08:52PM 44.5767 -115.1428 283° West 388 447 36,000  Level Salt Lake Center
08:53PM 44.6006 -115.2842 283° West 390 449 36,000  Level Salt Lake Center
08:54PM 44.6286 -115.4506 283° West 392 451 36,000  Level Salt Lake Center
08:55PM 44.6522 -115.5936 283° West 394 453 36,000  Level Salt Lake Center
08:56PM 44.6789 -115.7603 283° West 393 452 36,000  Level Salt Lake Center
08:57PM 44.7022 -115.9031 283° West 395 455 36,000  Level Salt Lake Center
08:58PM 44.7289 -116.0703 283° West 396 456 36,000  Level Salt Lake Center
08:59PM 44.7514 -116.2131 283° West 395 455 36,000  Level Salt Lake Center
09:00PM 44.7778 -116.3808 283° West 396 456 36,000  Level Salt Lake Center
09:01PM 44.8011 -116.5250 283° West 396 456 36,000  Level Salt Lake Center
09:03PM 44.8264 -116.6936 282° West 396 456 36,000  Level Salt Lake Center
09:04PM 44.8489 -116.8378 282° West 395 455 36,000  Level Salt Lake Center
09:05PM 44.8708 -116.9817 282° West 395 455 36,000  Level Salt Lake Center
09:06PM 44.8967 -117.1486 282° West 391 450 36,000  Level Salt Lake Center
09:06PM 44.9136 -117.2692 281° West 392 451 36,000  Level Seattle Center
09:07PM 44.9356 -117.4114 282° West 389 448 36,000  Level Seattle Center
09:08PM 44.9556 -117.5517 281° West 384 442 36,000  Level Seattle Center
09:09PM 44.9800 -117.7150 282° West 381 438 36,000  Level Seattle Center
09:10PM 44.9833 -117.7378 282° West 381 438 36,000  Level Salt Lake Center
09:11PM 45.0072 -117.9031 282° West 384 442 36,000  Level Salt Lake Center
09:11PM 45.0197 -117.9953 281° West 377 434 36,000  Level Seattle Center
09:12PM 45.0439 -118.1589 282° West 380 437 36,000  Level Seattle Center
09:13PM 45.0492 -118.1972 281° West 380 437 36,000  Level Salt Lake Center
09:14PM 45.0689 -118.3408 281° West 375 432 36,000  Level Salt Lake Center
09:14PM 45.0858 -118.4558 282° West 376 433 36,000  Level Seattle Center
09:15PM 45.1050 -118.5986 281° West 372 428 36,000  Level Seattle Center
09:17PM 45.1236 -118.7428 280° West 373 429 36,000  Level Seattle Center
09:18PM 45.1431 -118.8847 281° West 370 426 36,000  Level Seattle Center
09:19PM 45.1625 -119.0292 281° West 373 429 36,000  Level Seattle Center
09:20PM 45.1811 -119.1717 281° West 373 429 36,000  Level Seattle Center
09:21PM 45.2006 -119.3167 281° West 376 433 36,000  Level Seattle Center
09:22PM 45.2181 -119.4606 280° West 373 429 36,000  Level Seattle Center
09:23PM 45.2369 -119.6028 281° West 372 428 36,000  Level Seattle Center
09:24PM 45.2544 -119.7433 280° West 367 422 36,000  Level Seattle Center
09:25PM 45.2719 -119.8858 280° West 370 426 36,000  Level Seattle Center
09:26PM 45.2894 -120.0264 280° West 368 423 36,000  Level Seattle Center
09:27PM 45.3100 -120.1978 280° West 369 425 36,000 -600 Level Seattle Center
09:28PM 45.3264 -120.3386 279° West 365 420 34,900 -1,980 Descending Seattle Center
09:29PM 45.3447 -120.4811 280° West 366 421 32,000 -2,580 Descending Seattle Center
09:30PM 45.3614 -120.6239 279° West 368 423 29,700 -2,220 Descending Seattle Center
09:31PM 45.3778 -120.7608 280° West 352 405 27,600 -2,040 Descending Seattle Center
09:32PM 45.3931 -120.8903 280° West 334 384 25,600 -1,980 Descending Seattle Center
09:33PM 45.4061 -121.0144 279° West 320 368 23,600 -2,040 Descending Seattle Center
09:34PM 45.4217 -121.1444 280° West 330 380 21,500 -1,980 Descending Seattle Center
09:35PM 45.4367 -121.2703 280° West 324 373 19,700 -1,980 Descending Seattle Center
09:36PM 45.4522 -121.3908 280° West 316 364 17,900 -2,160 Descending Seattle Center
09:37PM 45.4681 -121.5261 280° West 328 377 15,700 -2,220 Descending Seattle Center
09:38PM 45.4836 -121.6522 280° West 317 365 13,500 -1,680 Descending Seattle Center
09:39PM 45.4964 -121.7644 279° West 279 321 12,400 -1,320 Descending Seattle Center
09:40PM 45.4967 -121.8694 270° West 253 291 10,900 -1,740 Descending Seattle Center
09:41PM 45.4836 -121.9736 260° West 257 296 8,800 -1,680 Descending Seattle Center
09:42PM 45.4533 -122.0575 243° Southwest 257 296 7,500 -1,620 Descending Seattle Center
09:43PM 45.4314 -122.1406 249° West 252 290 5,900 -1,500 Descending Seattle Center
09:43PM 45.4319 -122.1661 272° West 240 276 5,800 -720 Descending Seattle Center
09:44PM 45.4547 -122.2394 294° West 205 236 5,000 -1,020 Descending Seattle Center
09:44PM 45.4717 -122.2842 298° West 195 224 4,200 -1,380 Descending Seattle Center
09:45PM 45.4831 -122.3081 304° West 201 231 3,600 -720 Descending Seattle Center
09:46PM 45.4994 -122.3558 296° West 212 244 3,500 -540 Descending Seattle Center
09:46PM 45.5106 -122.3808 302° West 205 236 3,100 -1,200 Descending Seattle Center
09:47PM 45.5314 -122.4383 297° West 205 236 2,200 -1,140 Descending Seattle Center
09:47PM 45.5386 -122.4492 314° West 204 235 2,000 -840 Descending Seattle Center
09:48PM 45.5525 -122.4883 297° West 123 142 1,400 -840 Descending Seattle Center
09:48PM 45.5583 -122.5006 304° West 181 208 1,200 -720 Descending Seattle Center
09:49PM 45.5697 -122.5306 298° West 121 139 700 -720 Descending Seattle Center
09:49PM 45.5731 -122.5381 302° West 146 168 500 -240 Descending Seattle Center
09:50PM 45.5872 -122.5789 296° West 141 162 400 -120 Descending Seattle Center